createdAt,value
2017-05-22T00:00:53.713Z,60.80
2017-05-22T00:03:22.674Z,61.00
2017-05-22T00:05:51.612Z,61.20
2017-05-22T00:08:20.571Z,61.40
2017-05-22T00:10:49.508Z,60.70
2017-05-22T00:13:18.449Z,60.60
2017-05-22T00:15:47.426Z,59.80
2017-05-22T00:18:16.377Z,59.60
2017-05-22T00:20:45.319Z,59.60
2017-05-22T00:23:14.275Z,59.50
2017-05-22T00:25:43.211Z,59.30
2017-05-22T00:28:12.157Z,59.40
2017-05-22T00:30:41.115Z,59.20
2017-05-22T00:33:10.047Z,59.20
2017-05-22T00:35:38.977Z,59.50
2017-05-22T00:38:07.943Z,59.20
2017-05-22T00:40:36.876Z,59.40
2017-05-22T00:43:05.831Z,58.90
2017-05-22T00:45:34.810Z,59.00
2017-05-22T00:48:03.767Z,59.20
2017-05-22T00:50:32.713Z,58.90
2017-05-22T00:53:01.697Z,58.20
2017-05-22T00:55:30.630Z,58.60
2017-05-22T00:57:59.563Z,58.70
2017-05-22T01:00:28.542Z,58.80
2017-05-22T01:02:57.490Z,58.80
2017-05-22T01:05:26.440Z,58.80
2017-05-22T01:07:55.422Z,58.30
2017-05-22T01:10:24.367Z,58.50
2017-05-22T01:12:53.310Z,59.00
2017-05-22T01:15:22.289Z,59.00
2017-05-22T01:17:51.227Z,58.80
2017-05-22T01:20:20.163Z,58.90
2017-05-22T01:22:50.099Z,58.90
2017-05-22T01:25:19.060Z,58.40
2017-05-22T01:27:47.993Z,58.70
2017-05-22T01:30:16.965Z,58.40
2017-05-22T01:32:45.927Z,58.60
2017-05-22T01:35:14.853Z,59.00
2017-05-22T01:37:43.825Z,59.10
2017-05-22T01:40:12.774Z,58.90
2017-05-22T01:42:41.711Z,58.80
2017-05-22T01:45:10.699Z,58.70
2017-05-22T01:47:39.626Z,58.60
2017-05-22T01:50:08.562Z,58.80
2017-05-22T01:52:37.643Z,58.90
2017-05-22T01:55:06.572Z,58.70
2017-05-22T01:57:35.498Z,58.80
2017-05-22T02:00:04.502Z,58.80
2017-05-22T02:02:33.449Z,58.30
2017-05-22T02:05:02.386Z,58.60
2017-05-22T02:07:31.334Z,59.00
2017-05-22T02:10:00.257Z,59.40
2017-05-22T02:12:29.181Z,59.60
2017-05-22T02:14:58.158Z,59.50
2017-05-22T02:17:27.101Z,59.60
2017-05-22T02:19:56.027Z,59.40
2017-05-22T02:22:25.111Z,59.70
2017-05-22T02:24:54.057Z,59.70
2017-05-22T02:27:23.012Z,60.60
2017-05-22T02:29:51.963Z,60.10
2017-05-22T02:32:20.916Z,59.70
2017-05-22T02:34:49.865Z,59.90
2017-05-22T02:37:18.837Z,59.90
2017-05-22T02:39:47.785Z,59.60
2017-05-22T02:42:16.722Z,60.20
2017-05-22T02:44:45.674Z,60.00
2017-05-22T02:47:14.620Z,60.00
2017-05-22T02:49:43.542Z,60.00
2017-05-22T02:52:12.502Z,59.90
2017-05-22T02:54:41.500Z,60.00
2017-05-22T02:57:10.445Z,59.70
2017-05-22T02:59:39.402Z,60.50
2017-05-22T03:02:08.356Z,60.60
2017-05-22T03:04:37.304Z,60.80
2017-05-22T03:07:06.258Z,60.90
2017-05-22T03:09:35.190Z,60.40
2017-05-22T03:12:04.122Z,60.20
2017-05-22T03:14:33.109Z,60.20
2017-05-22T03:17:02.034Z,60.80
2017-05-22T03:19:30.980Z,60.70
2017-05-22T03:21:59.960Z,61.00
2017-05-22T03:24:28.909Z,61.40
2017-05-22T03:26:57.834Z,61.60
2017-05-22T03:29:26.813Z,61.90
2017-05-22T03:31:55.736Z,61.90
2017-05-22T03:34:24.687Z,61.70
2017-05-22T03:36:53.641Z,61.60
2017-05-22T03:39:22.585Z,61.40
2017-05-22T03:41:51.528Z,61.50
2017-05-22T03:44:20.483Z,61.40
2017-05-22T03:46:49.437Z,60.90
2017-05-22T03:49:18.367Z,61.30
2017-05-22T03:51:47.319Z,61.00
2017-05-22T03:54:16.253Z,60.40
2017-05-22T03:56:45.177Z,60.80
2017-05-22T03:59:14.138Z,60.00
2017-05-22T04:01:43.086Z,60.10
2017-05-22T04:04:12.033Z,61.50
2017-05-22T04:06:41.016Z,60.40
2017-05-22T04:09:09.947Z,60.80
2017-05-22T04:11:38.898Z,60.50
2017-05-22T04:14:07.902Z,60.80
2017-05-22T04:16:36.852Z,60.30
2017-05-22T04:19:05.791Z,60.50
2017-05-22T04:21:34.781Z,59.90
2017-05-22T04:24:03.736Z,59.50
2017-05-22T04:26:32.666Z,59.80
2017-05-22T04:29:01.621Z,59.70
2017-05-22T04:31:30.548Z,59.80
2017-05-22T04:33:59.478Z,59.60
2017-05-22T04:36:28.449Z,59.20
2017-05-22T04:38:57.390Z,59.20
2017-05-22T04:41:26.341Z,59.30
2017-05-22T04:43:55.316Z,59.10
2017-05-22T04:46:24.274Z,59.00
2017-05-22T04:48:53.213Z,59.00
2017-05-22T04:51:22.169Z,58.30
2017-05-22T04:53:51.099Z,58.10
2017-05-22T04:56:20.049Z,57.80
2017-05-22T04:58:49.007Z,57.50
2017-05-22T05:01:17.964Z,57.00
2017-05-22T05:03:46.911Z,57.00
2017-05-22T05:06:15.866Z,56.90
2017-05-22T05:08:44.790Z,56.90
2017-05-22T05:11:13.739Z,56.60
2017-05-22T05:13:42.724Z,56.50
2017-05-22T05:16:11.730Z,56.50
2017-05-22T05:18:40.665Z,54.90
2017-05-22T05:21:09.648Z,54.30
2017-05-22T05:23:38.593Z,55.00
2017-05-22T05:26:07.515Z,54.40
2017-05-22T05:28:36.492Z,54.50
2017-05-22T05:31:05.440Z,54.30
2017-05-22T05:33:34.359Z,54.40
2017-05-22T05:36:03.340Z,54.30
2017-05-22T05:38:33.319Z,54.30
2017-05-22T05:41:02.385Z,54.10
2017-05-22T05:43:31.372Z,54.10
2017-05-22T05:46:00.327Z,54.80
2017-05-22T05:48:29.252Z,54.20
2017-05-22T05:50:58.218Z,54.40
2017-05-22T05:53:27.159Z,54.40
2017-05-22T05:55:56.102Z,54.70
2017-05-22T05:58:25.061Z,53.90
2017-05-22T06:00:54.002Z,54.00
2017-05-22T06:03:22.930Z,54.20
2017-05-22T06:05:51.891Z,53.70
2017-05-22T06:08:20.823Z,53.60
2017-05-22T06:10:49.747Z,53.60
2017-05-22T06:13:18.724Z,53.40
2017-05-22T06:15:47.657Z,53.00
2017-05-22T06:18:16.603Z,52.30
2017-05-22T06:20:45.550Z,52.80
2017-05-22T06:23:14.920Z,53.00
2017-05-22T06:25:43.896Z,52.60
2017-05-22T06:28:12.848Z,52.40
2017-05-22T06:30:41.780Z,52.50
2017-05-22T06:33:10.701Z,52.20
2017-05-22T06:35:39.647Z,52.10
2017-05-22T06:38:08.589Z,50.70
2017-05-22T06:40:37.518Z,51.10
2017-05-22T06:43:06.462Z,51.50
2017-05-22T06:45:35.396Z,50.40
2017-05-22T06:48:04.337Z,50.30
2017-05-22T06:50:33.289Z,50.40
2017-05-22T06:53:02.233Z,50.10
2017-05-22T06:55:31.169Z,49.60
2017-05-22T06:58:00.145Z,49.20
2017-05-22T07:00:29.089Z,48.00
2017-05-22T07:02:58.036Z,47.70
2017-05-22T07:05:27.005Z,47.50
2017-05-22T07:07:56.000Z,46.30
2017-05-22T07:10:24.917Z,46.40
2017-05-22T07:12:53.869Z,46.20
2017-05-22T07:15:22.818Z,47.30
2017-05-22T07:17:51.738Z,45.90
2017-05-22T07:20:20.715Z,45.60
2017-05-22T07:22:49.657Z,45.90
2017-05-22T07:25:18.574Z,45.70
2017-05-22T07:27:47.535Z,45.00
2017-05-22T07:30:16.480Z,45.30
2017-05-22T07:32:45.402Z,46.30
2017-05-22T07:35:14.347Z,45.90
2017-05-22T07:37:43.292Z,44.70
2017-05-22T07:40:12.598Z,42.90
2017-05-22T07:42:41.653Z,43.20
2017-05-22T07:45:10.610Z,42.60
2017-05-22T07:47:39.545Z,43.10
2017-05-22T07:50:08.701Z,42.20
2017-05-22T07:52:37.720Z,41.10
2017-05-22T07:55:06.661Z,40.20
2017-05-22T07:57:35.650Z,37.20
2017-05-22T08:00:04.611Z,36.30
2017-05-22T08:02:33.558Z,33.90
2017-05-22T08:05:02.533Z,34.20
2017-05-22T08:07:31.460Z,32.90
2017-05-22T08:10:00.394Z,31.30
2017-05-22T08:12:29.350Z,30.60
2017-05-22T08:14:58.378Z,28.30
2017-05-22T08:17:27.362Z,27.60
2017-05-22T08:19:56.337Z,26.10
2017-05-22T08:22:25.266Z,25.60
2017-05-22T08:24:54.201Z,25.20
2017-05-22T08:27:23.499Z,23.20
2017-05-22T08:29:52.685Z,22.90
2017-05-22T08:32:21.634Z,22.30
2017-05-22T08:34:50.611Z,21.70
2017-05-22T08:37:19.573Z,20.20
2017-05-22T08:39:48.510Z,18.40
2017-05-22T08:42:17.477Z,18.60
2017-05-22T08:44:46.406Z,18.90
2017-05-22T08:47:15.346Z,18.80
2017-05-22T08:49:44.299Z,18.30
2017-05-22T08:52:13.226Z,17.90
2017-05-22T08:54:42.148Z,18.40
2017-05-22T08:57:11.136Z,17.40
2017-05-22T08:59:40.054Z,17.90
2017-05-22T09:02:08.974Z,17.50
2017-05-22T09:04:37.926Z,16.60
2017-05-22T09:07:06.844Z,16.10
2017-05-22T09:09:35.806Z,17.10
2017-05-22T09:12:04.773Z,17.20
2017-05-22T09:14:33.716Z,18.10
2017-05-22T09:17:02.636Z,16.30
2017-05-22T09:19:31.601Z,16.40
2017-05-22T09:22:00.526Z,16.50
2017-05-22T09:24:29.450Z,16.50
2017-05-22T09:26:58.416Z,15.80
2017-05-22T09:29:27.335Z,16.30
2017-05-22T09:31:56.259Z,16.40
2017-05-22T09:34:25.242Z,16.30
2017-05-22T09:36:54.195Z,16.40
2017-05-22T09:39:23.134Z,15.00
2017-05-22T09:41:52.108Z,14.90
2017-05-22T09:44:21.031Z,15.70
2017-05-22T09:46:49.969Z,13.60
2017-05-22T09:49:18.918Z,12.50
2017-05-22T09:51:47.835Z,11.80
2017-05-22T09:54:16.772Z,12.90
2017-05-22T09:56:45.730Z,12.80
2017-05-22T09:59:14.659Z,10.90
2017-05-22T10:01:43.609Z,11.10
2017-05-22T10:04:12.577Z,12.00
2017-05-22T10:06:41.513Z,12.90
2017-05-22T10:09:10.434Z,10.40
2017-05-22T10:11:39.383Z,12.80
2017-05-22T10:14:08.322Z,14.00
2017-05-22T10:16:37.241Z,14.20
2017-05-22T10:19:06.181Z,14.30
2017-05-22T10:21:35.125Z,13.90
2017-05-22T10:24:04.054Z,13.10
2017-05-22T10:26:33.142Z,13.40
2017-05-22T10:29:02.085Z,14.00
2017-05-22T10:31:31.029Z,14.60
2017-05-22T10:33:59.997Z,13.60
2017-05-22T10:36:28.915Z,12.20
2017-05-22T10:38:57.854Z,12.70
2017-05-22T10:41:26.820Z,14.40
2017-05-22T10:43:55.759Z,15.60
2017-05-22T10:46:24.679Z,15.00
2017-05-22T10:48:53.644Z,15.30
2017-05-22T10:51:22.588Z,15.30
2017-05-22T10:53:51.514Z,15.30
2017-05-22T10:56:20.481Z,15.70
2017-05-22T10:58:49.402Z,15.50
2017-05-22T11:01:18.347Z,15.20
2017-05-22T11:03:47.330Z,15.70
2017-05-22T11:06:16.258Z,18.40
2017-05-22T11:08:45.186Z,19.60
2017-05-22T11:11:14.142Z,21.80
2017-05-22T11:13:43.088Z,20.40
2017-05-22T11:16:12.009Z,17.30
2017-05-22T11:18:40.959Z,15.80
2017-05-22T11:21:09.917Z,14.30
2017-05-22T11:23:38.839Z,14.30
2017-05-22T11:26:07.790Z,15.00
2017-05-22T11:28:36.733Z,16.00
2017-05-22T11:31:05.677Z,17.60
2017-05-22T11:33:34.629Z,18.90
2017-05-22T11:36:03.568Z,19.70
2017-05-22T11:38:32.499Z,19.50
2017-05-22T11:41:01.474Z,20.10
2017-05-22T11:43:30.398Z,21.30
2017-05-22T11:45:59.337Z,20.90
2017-05-22T11:48:28.308Z,20.60
2017-05-22T11:50:57.260Z,21.10
2017-05-22T11:53:26.188Z,20.30
2017-05-22T11:55:55.152Z,19.10
2017-05-22T11:58:24.089Z,20.20
2017-05-22T12:00:53.019Z,21.60
2017-05-22T12:03:21.974Z,21.40
2017-05-22T12:05:50.920Z,21.50
2017-05-22T12:08:19.843Z,22.40
2017-05-22T12:10:48.827Z,22.80
2017-05-22T12:13:17.759Z,21.70
2017-05-22T12:15:46.693Z,22.20
2017-05-22T12:18:15.672Z,21.60
2017-05-22T12:20:44.599Z,21.60
2017-05-22T12:23:13.541Z,20.50
2017-05-22T12:25:42.514Z,21.00
2017-05-22T12:28:11.460Z,21.80
2017-05-22T12:30:40.410Z,22.20
2017-05-22T12:33:09.367Z,22.20
2017-05-22T12:35:38.309Z,21.70
2017-05-22T12:38:07.261Z,22.60
2017-05-22T12:40:36.245Z,23.10
2017-05-22T12:43:05.171Z,23.30
2017-05-22T12:45:34.093Z,22.20
2017-05-22T12:48:03.047Z,22.70
2017-05-22T12:50:31.993Z,22.70
2017-05-22T12:53:00.929Z,23.10
2017-05-22T12:55:29.885Z,22.70
2017-05-22T12:57:58.832Z,23.40
2017-05-22T13:00:27.780Z,23.00
2017-05-22T13:02:56.748Z,23.00
2017-05-22T13:05:25.701Z,23.50
2017-05-22T13:07:54.626Z,23.30
2017-05-22T13:10:23.593Z,24.30
2017-05-22T13:12:52.518Z,23.20
2017-05-22T13:15:21.461Z,23.20
2017-05-22T13:17:50.440Z,23.20
2017-05-22T13:20:19.385Z,23.60
2017-05-22T13:22:48.314Z,23.20
2017-05-22T13:25:17.288Z,23.80
2017-05-22T13:27:46.241Z,23.70
2017-05-22T13:30:15.188Z,24.00
2017-05-22T13:32:44.165Z,23.60
2017-05-22T13:35:13.710Z,22.90
2017-05-22T13:37:42.661Z,22.60
2017-05-22T13:40:11.641Z,23.00
2017-05-22T13:42:40.601Z,22.90
2017-05-22T13:45:09.545Z,23.50
2017-05-22T13:47:38.528Z,23.20
2017-05-22T13:50:07.472Z,23.80
2017-05-22T13:52:36.397Z,23.60
2017-05-22T13:55:05.369Z,24.60
2017-05-22T13:57:34.304Z,24.10
2017-05-22T14:00:03.251Z,23.50
2017-05-22T14:02:32.210Z,22.90
2017-05-22T14:05:01.209Z,23.90
2017-05-22T14:07:30.178Z,23.60
2017-05-22T14:09:59.151Z,23.00
2017-05-22T14:12:28.130Z,23.50
2017-05-22T14:14:57.077Z,23.40
2017-05-22T14:17:26.125Z,24.10
2017-05-22T14:19:55.077Z,24.90
2017-05-22T14:22:24.001Z,24.60
2017-05-22T14:24:52.956Z,23.80
2017-05-22T14:27:21.878Z,24.10
2017-05-22T14:29:50.820Z,23.30
2017-05-22T14:32:19.798Z,23.20
2017-05-22T14:34:48.741Z,24.50
2017-05-22T14:37:17.683Z,24.90
2017-05-22T14:39:46.641Z,24.20
2017-05-22T14:42:15.589Z,25.40
2017-05-22T14:44:44.534Z,24.50
2017-05-22T14:47:13.505Z,24.40
2017-05-22T14:49:42.445Z,25.10
2017-05-22T14:52:11.393Z,24.40
2017-05-22T14:54:40.363Z,24.70
2017-05-22T14:57:09.290Z,24.60
2017-05-22T14:59:38.225Z,24.80
2017-05-22T15:02:07.176Z,24.70
2017-05-22T15:04:36.102Z,25.50
2017-05-22T15:07:05.045Z,25.20
2017-05-22T15:09:34.003Z,25.60
2017-05-22T15:12:02.953Z,25.80
2017-05-22T15:14:31.902Z,25.50
2017-05-22T15:17:00.858Z,26.00
2017-05-22T15:19:29.810Z,25.70
2017-05-22T15:21:58.735Z,25.30
2017-05-22T15:24:27.721Z,25.70
2017-05-22T15:26:56.647Z,25.70
2017-05-22T15:29:25.567Z,25.40
2017-05-22T15:31:54.538Z,25.70
2017-05-22T15:34:23.485Z,25.70
2017-05-22T15:36:52.428Z,25.90
2017-05-22T15:39:21.387Z,26.60
2017-05-22T15:41:50.310Z,26.40
2017-05-22T15:44:19.251Z,26.00
2017-05-22T15:46:48.225Z,26.30
2017-05-22T15:49:17.165Z,26.40
2017-05-22T15:51:46.097Z,26.60
2017-05-22T15:54:15.072Z,26.50
2017-05-22T15:56:44.173Z,26.50
2017-05-22T15:59:13.114Z,26.80
2017-05-22T16:01:42.096Z,26.50
2017-05-22T16:04:11.036Z,27.10
2017-05-22T16:06:39.967Z,26.80
2017-05-22T16:09:08.944Z,27.00
2017-05-22T16:11:37.867Z,27.20
2017-05-22T16:14:06.801Z,26.70
2017-05-22T16:16:35.773Z,27.30
2017-05-22T16:19:04.709Z,26.40
2017-05-22T16:21:33.628Z,26.40
2017-05-22T16:24:02.576Z,26.30
2017-05-22T16:26:31.521Z,26.70
2017-05-22T16:29:00.464Z,27.30
2017-05-22T16:31:29.419Z,27.30
2017-05-22T16:33:58.344Z,27.40
2017-05-22T16:36:27.288Z,27.40
2017-05-22T16:38:56.239Z,27.50
2017-05-22T16:41:25.164Z,27.50
2017-05-22T16:43:54.101Z,27.70
2017-05-22T16:46:23.078Z,28.20
2017-05-22T16:48:52.001Z,28.20
2017-05-22T16:51:20.945Z,28.00
2017-05-22T16:53:49.890Z,27.90
2017-05-22T16:56:18.814Z,27.80
2017-05-22T16:58:47.748Z,28.30
2017-05-22T17:01:16.723Z,28.60
2017-05-22T17:03:45.664Z,28.50
2017-05-22T17:06:14.617Z,28.70
2017-05-22T17:08:43.570Z,28.70
2017-05-22T17:11:12.500Z,28.80
2017-05-22T17:13:41.440Z,28.80
2017-05-22T17:16:10.411Z,28.90
2017-05-22T17:18:39.335Z,29.40
2017-05-22T17:21:08.285Z,29.50
2017-05-22T17:23:37.234Z,29.40
2017-05-22T17:26:06.168Z,29.10
2017-05-22T17:28:35.109Z,28.90
2017-05-22T17:31:04.054Z,29.50
2017-05-22T17:33:32.974Z,29.90
2017-05-22T17:36:01.894Z,30.00
2017-05-22T17:38:30.865Z,30.20
2017-05-22T17:40:59.791Z,30.40
2017-05-22T17:43:28.713Z,30.40
2017-05-22T17:45:57.661Z,30.50
2017-05-22T17:48:26.602Z,30.70
2017-05-22T17:50:55.543Z,30.70
2017-05-22T17:53:24.537Z,30.80
2017-05-22T17:55:53.474Z,30.90
2017-05-22T17:58:22.406Z,31.10
2017-05-22T18:00:51.375Z,31.70
2017-05-22T18:03:20.305Z,31.90
2017-05-22T18:05:49.230Z,32.20
2017-05-22T18:08:18.202Z,31.60
2017-05-22T18:10:47.134Z,31.90
2017-05-22T18:13:16.053Z,32.20
2017-05-22T18:15:45.033Z,32.60
2017-05-22T18:18:13.959Z,33.00
2017-05-22T18:20:42.904Z,33.30
2017-05-22T18:23:11.850Z,33.40
2017-05-22T18:25:40.793Z,32.90
2017-05-22T18:28:09.737Z,33.10
2017-05-22T18:30:38.700Z,33.00
2017-05-22T18:33:07.642Z,33.80
2017-05-22T18:35:36.589Z,33.40
2017-05-22T18:38:05.557Z,33.60
2017-05-22T18:40:34.485Z,33.60
2017-05-22T18:43:03.408Z,34.10
2017-05-22T18:45:32.388Z,34.80
2017-05-22T18:48:01.330Z,35.10
2017-05-22T18:50:30.254Z,35.50
2017-05-22T18:52:59.232Z,35.80
2017-05-22T18:55:28.150Z,36.10
2017-05-22T18:57:57.087Z,36.30
2017-05-22T19:00:26.063Z,36.10
2017-05-22T19:02:54.991Z,35.80
2017-05-22T19:05:23.932Z,35.70
2017-05-22T19:07:52.912Z,36.10
2017-05-22T19:10:21.858Z,36.50
2017-05-22T19:12:50.805Z,36.90
2017-05-22T19:15:19.761Z,36.80
2017-05-22T19:17:48.686Z,37.80
2017-05-22T19:20:17.630Z,37.30
2017-05-22T19:22:46.626Z,37.60
2017-05-22T19:25:15.589Z,37.30
2017-05-22T19:27:44.573Z,37.60
2017-05-22T19:30:13.522Z,37.90
2017-05-22T19:32:42.465Z,37.80
2017-05-22T19:35:11.415Z,37.90
2017-05-22T19:37:40.434Z,38.10
2017-05-22T19:40:09.359Z,38.40
2017-05-22T19:42:38.320Z,39.50
2017-05-22T19:45:07.292Z,40.80
2017-05-22T19:47:36.225Z,42.90
2017-05-22T19:50:05.173Z,43.80
2017-05-22T19:52:34.123Z,45.40
2017-05-22T19:55:03.065Z,46.30
2017-05-22T19:57:31.990Z,46.80
2017-05-22T20:00:00.938Z,47.60
2017-05-22T20:02:30.034Z,48.90
2017-05-22T20:04:59.001Z,49.50
2017-05-22T20:07:27.976Z,50.20
2017-05-22T20:09:56.897Z,51.00
2017-05-22T20:12:25.845Z,51.70
2017-05-22T20:14:54.817Z,52.30
2017-05-22T20:17:23.753Z,53.20
2017-05-22T20:19:52.675Z,54.30
2017-05-22T20:22:21.682Z,54.40
2017-05-22T20:24:50.602Z,54.60
2017-05-22T20:27:19.523Z,54.60
2017-05-22T20:29:48.617Z,54.70
2017-05-22T20:32:17.790Z,55.10
2017-05-22T20:34:46.729Z,55.40
2017-05-22T20:37:15.697Z,55.70
2017-05-22T20:39:44.645Z,55.70
2017-05-22T20:42:13.590Z,55.90
2017-05-22T20:44:42.551Z,55.60
2017-05-22T20:47:11.502Z,56.10
2017-05-22T20:49:40.452Z,55.70
2017-05-22T20:52:09.402Z,56.00
2017-05-22T20:54:38.347Z,55.80
2017-05-22T20:57:07.754Z,55.70
2017-05-22T20:59:36.804Z,55.90
2017-05-22T21:02:05.772Z,55.80
2017-05-22T21:04:34.712Z,55.90
2017-05-22T21:07:03.749Z,56.00
2017-05-22T21:09:32.702Z,56.10
2017-05-22T21:12:01.687Z,56.00
2017-05-22T21:14:30.665Z,56.10
2017-05-22T21:16:59.586Z,56.80
2017-05-22T21:19:28.540Z,55.90
2017-05-22T21:21:57.511Z,55.70
2017-05-22T21:24:26.519Z,55.60
2017-05-22T21:26:55.570Z,55.60
2017-05-22T21:29:24.597Z,56.00
2017-05-22T21:31:53.620Z,56.10
2017-05-22T21:34:22.578Z,56.30
2017-05-22T21:36:51.584Z,56.10
2017-05-22T21:39:20.561Z,56.50
2017-05-22T21:41:49.519Z,56.40
2017-05-22T21:44:18.655Z,56.60
2017-05-22T21:46:47.686Z,56.80
2017-05-22T21:49:16.625Z,56.70
2017-05-22T21:51:45.654Z,56.80
2017-05-22T21:54:14.578Z,56.90
2017-05-22T21:56:43.901Z,56.90
2017-05-22T21:59:12.871Z,57.00
2017-05-22T22:01:41.800Z,57.10
2017-05-22T22:04:10.717Z,57.10
2017-05-22T22:06:39.687Z,57.30
2017-05-22T22:09:08.628Z,57.40
2017-05-22T22:11:37.579Z,57.60
2017-05-22T22:14:06.563Z,57.80
2017-05-22T22:16:35.500Z,57.90
2017-05-22T22:19:04.437Z,58.20
2017-05-22T22:21:33.389Z,58.10
2017-05-22T22:24:02.331Z,58.30
2017-05-22T22:26:31.273Z,58.50
2017-05-22T22:29:00.249Z,58.60
2017-05-22T22:31:29.193Z,58.70
2017-05-22T22:33:58.134Z,58.60
2017-05-22T22:36:27.089Z,58.80
2017-05-22T22:38:56.006Z,58.90
2017-05-22T22:41:24.949Z,59.00
2017-05-22T22:43:53.921Z,59.00
2017-05-22T22:46:22.865Z,59.30
2017-05-22T22:48:51.782Z,59.40
2017-05-22T22:51:20.753Z,59.30
2017-05-22T22:53:49.670Z,59.50
2017-05-22T22:56:18.595Z,59.20
2017-05-22T22:58:47.560Z,59.30
2017-05-22T23:01:16.497Z,59.10
2017-05-22T23:03:45.437Z,59.20
2017-05-22T23:06:14.425Z,59.40
2017-05-22T23:08:43.347Z,59.30
2017-05-22T23:11:12.266Z,59.30
2017-05-22T23:13:41.240Z,59.20
2017-05-22T23:16:10.167Z,59.70
2017-05-22T23:18:39.109Z,59.70
2017-05-22T23:21:08.082Z,59.80
2017-05-22T23:23:37.007Z,60.30
2017-05-22T23:26:05.926Z,60.60
2017-05-22T23:28:34.897Z,60.00
2017-05-22T23:31:03.814Z,60.50
2017-05-22T23:33:32.740Z,60.80
2017-05-22T23:36:01.698Z,61.40
2017-05-22T23:38:30.636Z,61.20
2017-05-22T23:40:59.549Z,61.40
2017-05-22T23:43:28.519Z,61.40
2017-05-22T23:45:57.477Z,61.60
2017-05-22T23:48:26.398Z,61.90
2017-05-22T23:50:55.390Z,62.00
2017-05-22T23:53:24.374Z,62.00
2017-05-22T23:55:53.307Z,63.00
2017-05-22T23:58:22.289Z,62.40
